sensor_id;sensor_type;location;lat;lon;timestamp;pressure;altitude;pressure_sealevel;temperature;humidity
72118;BME280;59992;47.490;8.736;2022-11-15T00:00:30;96532.07;;;3.85;95.56
72118;BME280;59992;47.490;8.736;2022-11-15T00:03:20;96529.42;;;3.81;95.08
72118;BME280;59992;47.490;8.736;2022-11-15T00:06:09;96528.88;;;3.74;94.72
72118;BME280;59992;47.490;8.736;2022-11-15T00:08:59;96523.81;;;3.71;95.55
72118;BME280;59992;47.490;8.736;2022-11-15T00:11:47;96521.05;;;3.67;96.05
72118;BME280;59992;47.490;8.736;2022-11-15T00:14:35;96517.67;;;3.67;97.13
72118;BME280;59992;47.490;8.736;2022-11-15T00:17:23;96515.48;;;3.66;97.07
72118;BME280;59992;47.490;8.736;2022-11-15T00:20:12;96512.52;;;3.67;97.50
72118;BME280;59992;47.490;8.736;2022-11-15T00:22:59;96508.98;;;3.69;97.71
72118;BME280;59992;47.490;8.736;2022-11-15T00:25:55;96509.20;;;3.71;97.45
72118;BME280;59992;47.490;8.736;2022-11-15T00:28:44;96506.09;;;3.74;97.48
72118;BME280;59992;47.490;8.736;2022-11-15T00:31:33;96509.17;;;3.76;97.39
72118;BME280;59992;47.490;8.736;2022-11-15T00:34:21;96503.46;;;3.80;97.84
72118;BME280;59992;47.490;8.736;2022-11-15T00:37:09;96500.59;;;3.81;97.66
72118;BME280;59992;47.490;8.736;2022-11-15T00:39:57;96501.29;;;3.82;97.74
72118;BME280;59992;47.490;8.736;2022-11-15T00:42:46;96500.19;;;3.82;97.92
72118;BME280;59992;47.490;8.736;2022-11-15T00:45:34;96496.69;;;3.80;97.31
72118;BME280;59992;47.490;8.736;2022-11-15T00:48:23;96496.50;;;3.78;96.68
72118;BME280;59992;47.490;8.736;2022-11-15T00:51:11;96491.04;;;3.74;96.46
72118;BME280;59992;47.490;8.736;2022-11-15T00:53:59;96489.75;;;3.73;96.95
72118;BME280;59992;47.490;8.736;2022-11-15T00:56:47;96487.70;;;3.72;97.65
72118;BME280;59992;47.490;8.736;2022-11-15T00:59:35;96480.91;;;3.71;96.81
72118;BME280;59992;47.490;8.736;2022-11-15T01:02:23;96477.09;;;3.67;96.92
72118;BME280;59992;47.490;8.736;2022-11-15T01:05:11;96475.99;;;3.70;98.32
72118;BME280;59992;47.490;8.736;2022-11-15T01:07:59;96482.27;;;3.76;99.32
72118;BME280;59992;47.490;8.736;2022-11-15T01:10:48;96483.81;;;3.83;99.41
72118;BME280;59992;47.490;8.736;2022-11-15T01:13:38;96487.67;;;3.90;99.90
72118;BME280;59992;47.490;8.736;2022-11-15T01:16:27;96490.63;;;4.01;100.00
72118;BME280;59992;47.490;8.736;2022-11-15T01:19:15;96492.48;;;4.08;99.87
72118;BME280;59992;47.490;8.736;2022-11-15T01:22:03;96493.39;;;4.19;99.98
72118;BME280;59992;47.490;8.736;2022-11-15T01:24:51;96487.48;;;4.29;100.00
72118;BME280;59992;47.490;8.736;2022-11-15T01:27:39;96479.61;;;4.40;100.00
72118;BME280;59992;47.490;8.736;2022-11-15T01:30:28;96474.77;;;4.50;100.00
72118;BME280;59992;47.490;8.736;2022-11-15T01:33:16;96470.34;;;4.58;99.81
72118;BME280;59992;47.490;8.736;2022-11-15T01:36:06;96461.19;;;4.65;99.19
72118;BME280;59992;47.490;8.736;2022-11-15T01:38:55;96457.23;;;4.69;98.39
72118;BME280;59992;47.490;8.736;2022-11-15T01:41:45;96451.14;;;4.70;97.45
72118;BME280;59992;47.490;8.736;2022-11-15T01:44:42;96447.36;;;4.68;97.60
72118;BME280;59992;47.490;8.736;2022-11-15T01:47:32;96445.67;;;4.70;97.47
72118;BME280;59992;47.490;8.736;2022-11-15T01:50:25;96441.78;;;4.72;97.70
72118;BME280;59992;47.490;8.736;2022-11-15T01:53:16;96440.64;;;4.76;98.25
72118;BME280;59992;47.490;8.736;2022-11-15T01:56:07;96435.40;;;4.81;98.12
72118;BME280;59992;47.490;8.736;2022-11-15T01:58:59;96436.21;;;4.85;97.84
72118;BME280;59992;47.490;8.736;2022-11-15T02:01:49;96432.71;;;4.86;96.67
72118;BME280;59992;47.490;8.736;2022-11-15T02:04:41;96430.55;;;4.86;96.41
72118;BME280;59992;47.490;8.736;2022-11-15T02:07:31;96425.88;;;4.86;95.87
72118;BME280;59992;47.490;8.736;2022-11-15T02:10:21;96418.16;;;4.82;95.72
72118;BME280;59992;47.490;8.736;2022-11-15T02:13:10;96410.90;;;4.82;96.62
72118;BME280;59992;47.490;8.736;2022-11-15T02:16:05;96411.13;;;4.82;96.67
72118;BME280;59992;47.490;8.736;2022-11-15T02:19:02;96409.23;;;4.82;97.15
72118;BME280;59992;47.490;8.736;2022-11-15T02:22:03;96405.70;;;4.84;96.76
72118;BME280;59992;47.490;8.736;2022-11-15T02:25:18;96401.42;;;4.88;97.85
72118;BME280;59992;47.490;8.736;2022-11-15T02:28:46;96398.94;;;4.93;98.06
72118;BME280;59992;47.490;8.736;2022-11-15T02:31:43;96396.30;;;4.97;97.68
72118;BME280;59992;47.490;8.736;2022-11-15T02:34:45;96392.72;;;5.00;96.80
72118;BME280;59992;47.490;8.736;2022-11-15T02:37:44;96391.27;;;5.04;97.50
72118;BME280;59992;47.490;8.736;2022-11-15T02:40:39;96385.80;;;5.09;98.20
72118;BME280;59992;47.490;8.736;2022-11-15T02:43:38;96383.69;;;5.16;97.94
72118;BME280;59992;47.490;8.736;2022-11-15T02:46:49;96380.82;;;5.21;96.92
72118;BME280;59992;47.490;8.736;2022-11-15T02:50:00;96381.79;;;5.25;97.66
72118;BME280;59992;47.490;8.736;2022-11-15T02:52:50;96391.04;;;5.28;97.78
72118;BME280;59992;47.490;8.736;2022-11-15T02:55:41;96398.19;;;5.31;97.16
72118;BME280;59992;47.490;8.736;2022-11-15T02:58:46;96403.35;;;5.33;97.02
72118;BME280;59992;47.490;8.736;2022-11-15T03:01:44;96396.91;;;5.33;96.54
72118;BME280;59992;47.490;8.736;2022-11-15T03:04:44;96385.77;;;5.32;95.92
72118;BME280;59992;47.490;8.736;2022-11-15T03:07:38;96384.02;;;5.32;95.72
72118;BME280;59992;47.490;8.736;2022-11-15T03:10:37;96380.73;;;5.30;94.95
72118;BME280;59992;47.490;8.736;2022-11-15T03:13:35;96371.39;;;5.29;95.06
72118;BME280;59992;47.490;8.736;2022-11-15T03:16:29;96375.56;;;5.28;95.36
72118;BME280;59992;47.490;8.736;2022-11-15T03:19:22;96369.13;;;5.26;95.51
72118;BME280;59992;47.490;8.736;2022-11-15T03:22:16;96363.02;;;5.25;95.57
72118;BME280;59992;47.490;8.736;2022-11-15T03:25:09;96355.95;;;5.25;94.93
72118;BME280;59992;47.490;8.736;2022-11-15T03:28:01;96359.27;;;5.22;96.18
72118;BME280;59992;47.490;8.736;2022-11-15T03:30:52;96354.73;;;5.24;96.97
72118;BME280;59992;47.490;8.736;2022-11-15T03:33:43;96353.20;;;5.25;96.38
72118;BME280;59992;47.490;8.736;2022-11-15T03:36:33;96351.95;;;5.27;97.01
72118;BME280;59992;47.490;8.736;2022-11-15T03:39:22;96349.14;;;5.28;96.64
72118;BME280;59992;47.490;8.736;2022-11-15T03:42:20;96345.73;;;5.29;97.14
72118;BME280;59992;47.490;8.736;2022-11-15T03:45:14;96340.09;;;5.31;96.51
72118;BME280;59992;47.490;8.736;2022-11-15T03:48:09;96340.88;;;5.33;97.11
72118;BME280;59992;47.490;8.736;2022-11-15T03:50:58;96340.15;;;5.33;97.05
72118;BME280;59992;47.490;8.736;2022-11-15T03:53:46;96340.13;;;5.35;96.66
72118;BME280;59992;47.490;8.736;2022-11-15T03:56:34;96341.87;;;5.38;96.80
72118;BME280;59992;47.490;8.736;2022-11-15T03:59:22;96343.28;;;5.41;96.19
72118;BME280;59992;47.490;8.736;2022-11-15T04:02:11;96346.15;;;5.33;95.33
72118;BME280;59992;47.490;8.736;2022-11-15T04:05:00;96342.95;;;5.29;96.13
72118;BME280;59992;47.490;8.736;2022-11-15T04:07:48;96345.89;;;5.30;96.63
72118;BME280;59992;47.490;8.736;2022-11-15T04:10:36;96347.31;;;5.32;96.64
72118;BME280;59992;47.490;8.736;2022-11-15T04:13:24;96346.61;;;5.33;96.27
72118;BME280;59992;47.490;8.736;2022-11-15T04:16:12;96341.83;;;5.32;96.73
72118;BME280;59992;47.490;8.736;2022-11-15T04:19:01;96349.02;;;5.31;96.32
72118;BME280;59992;47.490;8.736;2022-11-15T04:22:08;96352.88;;;5.30;95.86
72118;BME280;59992;47.490;8.736;2022-11-15T04:25:14;96351.29;;;5.27;96.22
72118;BME280;59992;47.490;8.736;2022-11-15T04:28:03;96351.86;;;5.26;95.49
72118;BME280;59992;47.490;8.736;2022-11-15T04:30:51;96341.63;;;5.20;94.78
72118;BME280;59992;47.490;8.736;2022-11-15T04:33:40;96334.86;;;5.03;95.25
72118;BME280;59992;47.490;8.736;2022-11-15T04:36:28;96341.40;;;5.03;94.90
72118;BME280;59992;47.490;8.736;2022-11-15T04:39:35;96341.55;;;4.96;94.95
72118;BME280;59992;47.490;8.736;2022-11-15T04:42:23;96341.09;;;4.88;93.69
72118;BME280;59992;47.490;8.736;2022-11-15T04:45:11;96332.23;;;4.81;93.86
72118;BME280;59992;47.490;8.736;2022-11-15T04:48:00;96327.20;;;4.74;93.86
72118;BME280;59992;47.490;8.736;2022-11-15T04:50:48;96329.17;;;4.67;94.65
72118;BME280;59992;47.490;8.736;2022-11-15T04:53:36;96329.44;;;4.61;94.08
72118;BME280;59992;47.490;8.736;2022-11-15T04:56:24;96326.92;;;4.50;94.65
72118;BME280;59992;47.490;8.736;2022-11-15T04:59:12;96325.30;;;4.44;95.40
72118;BME280;59992;47.490;8.736;2022-11-15T05:02:00;96322.23;;;4.37;95.79
72118;BME280;59992;47.490;8.736;2022-11-15T05:04:48;96314.90;;;4.36;95.79
72118;BME280;59992;47.490;8.736;2022-11-15T05:07:36;96312.92;;;4.33;94.85
72118;BME280;59992;47.490;8.736;2022-11-15T05:10:24;96308.70;;;4.30;94.68
72118;BME280;59992;47.490;8.736;2022-11-15T05:13:13;96307.80;;;4.22;95.17
72118;BME280;59992;47.490;8.736;2022-11-15T05:16:01;96301.66;;;4.16;94.75
72118;BME280;59992;47.490;8.736;2022-11-15T05:18:51;96299.29;;;4.10;94.78
72118;BME280;59992;47.490;8.736;2022-11-15T05:21:40;96297.27;;;4.03;93.93
72118;BME280;59992;47.490;8.736;2022-11-15T05:24:28;96295.46;;;3.92;94.69
72118;BME280;59992;47.490;8.736;2022-11-15T05:27:16;96297.46;;;3.85;95.22
72118;BME280;59992;47.490;8.736;2022-11-15T05:30:06;96295.42;;;3.76;95.93
72118;BME280;59992;47.490;8.736;2022-11-15T05:32:54;96292.86;;;3.78;96.64
72118;BME280;59992;47.490;8.736;2022-11-15T05:35:46;96292.58;;;3.76;96.47
72118;BME280;59992;47.490;8.736;2022-11-15T05:38:38;96291.30;;;3.74;96.89
72118;BME280;59992;47.490;8.736;2022-11-15T05:41:30;96291.45;;;3.74;96.71
72118;BME280;59992;47.490;8.736;2022-11-15T05:44:22;96284.33;;;3.69;95.79
72118;BME280;59992;47.490;8.736;2022-11-15T05:47:12;96281.64;;;3.65;95.36
72118;BME280;59992;47.490;8.736;2022-11-15T05:50:02;96276.33;;;3.60;96.28
72118;BME280;59992;47.490;8.736;2022-11-15T05:52:51;96275.61;;;3.57;97.24
72118;BME280;59992;47.490;8.736;2022-11-15T05:55:40;96274.42;;;3.59;97.95
72118;BME280;59992;47.490;8.736;2022-11-15T05:58:29;96273.50;;;3.63;97.89
72118;BME280;59992;47.490;8.736;2022-11-15T06:01:18;96273.59;;;3.70;98.79
72118;BME280;59992;47.490;8.736;2022-11-15T06:04:06;96279.36;;;3.78;98.49
72118;BME280;59992;47.490;8.736;2022-11-15T06:06:58;96278.08;;;3.83;98.53
72118;BME280;59992;47.490;8.736;2022-11-15T06:09:46;96277.71;;;3.93;98.36
72118;BME280;59992;47.490;8.736;2022-11-15T06:12:34;96280.27;;;3.97;97.56
72118;BME280;59992;47.490;8.736;2022-11-15T06:15:22;96281.41;;;4.02;98.00
72118;BME280;59992;47.490;8.736;2022-11-15T06:18:10;96281.71;;;4.09;97.97
72118;BME280;59992;47.490;8.736;2022-11-15T06:21:00;96271.86;;;4.12;97.61
72118;BME280;59992;47.490;8.736;2022-11-15T06:23:48;96275.30;;;4.21;96.61
72118;BME280;59992;47.490;8.736;2022-11-15T06:26:37;96273.43;;;4.26;97.34
72118;BME280;59992;47.490;8.736;2022-11-15T06:29:24;96278.61;;;4.31;96.97
72118;BME280;59992;47.490;8.736;2022-11-15T06:32:12;96275.80;;;4.34;96.09
72118;BME280;59992;47.490;8.736;2022-11-15T06:35:00;96277.38;;;4.34;96.15
72118;BME280;59992;47.490;8.736;2022-11-15T06:37:49;96278.00;;;4.37;95.93
72118;BME280;59992;47.490;8.736;2022-11-15T06:40:37;96280.42;;;4.40;95.67
72118;BME280;59992;47.490;8.736;2022-11-15T06:43:26;96279.60;;;4.43;95.53
72118;BME280;59992;47.490;8.736;2022-11-15T06:46:14;96281.08;;;4.45;96.05
72118;BME280;59992;47.490;8.736;2022-11-15T06:49:02;96283.25;;;4.49;95.83
72118;BME280;59992;47.490;8.736;2022-11-15T06:51:50;96282.33;;;4.51;94.91
72118;BME280;59992;47.490;8.736;2022-11-15T06:54:37;96289.66;;;4.53;96.15
72118;BME280;59992;47.490;8.736;2022-11-15T06:57:25;96291.00;;;4.62;97.04
72118;BME280;59992;47.490;8.736;2022-11-15T07:00:15;96287.19;;;4.72;96.61
72118;BME280;59992;47.490;8.736;2022-11-15T07:03:03;96286.31;;;4.83;96.00
72118;BME280;59992;47.490;8.736;2022-11-15T07:05:53;96286.61;;;4.95;97.53
72118;BME280;59992;47.490;8.736;2022-11-15T07:08:42;96286.73;;;5.12;97.99
72118;BME280;59992;47.490;8.736;2022-11-15T07:11:30;96279.30;;;5.30;97.00
72118;BME280;59992;47.490;8.736;2022-11-15T07:14:18;96279.14;;;5.48;96.68
72118;BME280;59992;47.490;8.736;2022-11-15T07:17:06;96281.73;;;5.66;96.06
72118;BME280;59992;47.490;8.736;2022-11-15T07:19:54;96283.02;;;5.75;94.47
72118;BME280;59992;47.490;8.736;2022-11-15T07:22:44;96282.48;;;5.77;94.13
72118;BME280;59992;47.490;8.736;2022-11-15T07:25:32;96283.30;;;5.87;94.61
72118;BME280;59992;47.490;8.736;2022-11-15T07:28:21;96277.45;;;5.96;94.47
72118;BME280;59992;47.490;8.736;2022-11-15T07:31:09;96272.93;;;6.04;93.74
72118;BME280;59992;47.490;8.736;2022-11-15T07:33:57;96276.81;;;6.12;93.70
72118;BME280;59992;47.490;8.736;2022-11-15T07:36:45;96283.14;;;6.21;94.49
72118;BME280;59992;47.490;8.736;2022-11-15T07:39:33;96276.50;;;6.26;93.98
72118;BME280;59992;47.490;8.736;2022-11-15T07:42:21;96279.65;;;6.32;92.90
72118;BME280;59992;47.490;8.736;2022-11-15T07:45:24;96280.79;;;6.39;92.66
72118;BME280;59992;47.490;8.736;2022-11-15T07:48:13;96279.96;;;6.45;91.32
72118;BME280;59992;47.490;8.736;2022-11-15T07:51:02;96281.96;;;6.44;90.35
72118;BME280;59992;47.490;8.736;2022-11-15T07:53:50;96282.80;;;6.44;91.81
72118;BME280;59992;47.490;8.736;2022-11-15T07:56:38;96279.38;;;6.49;92.25
72118;BME280;59992;47.490;8.736;2022-11-15T07:59:26;96282.70;;;6.53;92.11
72118;BME280;59992;47.490;8.736;2022-11-15T08:02:15;96286.13;;;6.54;92.14
72118;BME280;59992;47.490;8.736;2022-11-15T08:05:06;96281.15;;;6.63;92.12
72118;BME280;59992;47.490;8.736;2022-11-15T08:07:56;96273.23;;;6.69;91.85
72118;BME280;59992;47.490;8.736;2022-11-15T08:10:44;96271.08;;;6.77;91.12
72118;BME280;59992;47.490;8.736;2022-11-15T08:13:32;96273.18;;;6.84;91.26
72118;BME280;59992;47.490;8.736;2022-11-15T08:16:21;96272.08;;;6.92;91.75
72118;BME280;59992;47.490;8.736;2022-11-15T08:19:09;96266.60;;;6.96;91.37
72118;BME280;59992;47.490;8.736;2022-11-15T08:21:57;96254.45;;;7.08;91.10
72118;BME280;59992;47.490;8.736;2022-11-15T08:24:45;96245.48;;;7.22;91.53
72118;BME280;59992;47.490;8.736;2022-11-15T08:27:33;96236.77;;;7.31;90.60
72118;BME280;59992;47.490;8.736;2022-11-15T08:30:22;96239.43;;;7.44;90.30
72118;BME280;59992;47.490;8.736;2022-11-15T08:33:12;96240.86;;;7.55;89.71
72118;BME280;59992;47.490;8.736;2022-11-15T08:36:01;96247.07;;;7.68;90.22
72118;BME280;59992;47.490;8.736;2022-11-15T08:38:49;96244.05;;;7.80;89.22
72118;BME280;59992;47.490;8.736;2022-11-15T08:41:38;96247.30;;;7.92;89.30
72118;BME280;59992;47.490;8.736;2022-11-15T08:44:26;96245.45;;;8.00;86.31
72118;BME280;59992;47.490;8.736;2022-11-15T08:47:14;96236.73;;;8.00;88.40
72118;BME280;59992;47.490;8.736;2022-11-15T08:50:03;96228.02;;;7.98;89.14
72118;BME280;59992;47.490;8.736;2022-11-15T08:52:51;96241.17;;;8.09;89.31
72118;BME280;59992;47.490;8.736;2022-11-15T08:55:41;96241.46;;;8.25;89.73
72118;BME280;59992;47.490;8.736;2022-11-15T08:58:29;96231.08;;;8.41;88.43
72118;BME280;59992;47.490;8.736;2022-11-15T09:01:18;96236.17;;;8.61;87.89
72118;BME280;59992;47.490;8.736;2022-11-15T09:04:07;96231.17;;;8.76;86.96
72118;BME280;59992;47.490;8.736;2022-11-15T09:06:55;96228.00;;;8.91;86.38
72118;BME280;59992;47.490;8.736;2022-11-15T09:09:43;96227.61;;;9.02;84.21
72118;BME280;59992;47.490;8.736;2022-11-15T09:12:32;96228.04;;;9.11;83.49
72118;BME280;59992;47.490;8.736;2022-11-15T09:15:20;96223.55;;;9.20;84.32
72118;BME280;59992;47.490;8.736;2022-11-15T09:18:08;96221.91;;;9.28;84.37
72118;BME280;59992;47.490;8.736;2022-11-15T09:20:57;96226.84;;;9.36;85.01
72118;BME280;59992;47.490;8.736;2022-11-15T09:23:46;96234.82;;;9.46;85.23
72118;BME280;59992;47.490;8.736;2022-11-15T09:26:34;96238.79;;;9.55;84.86
72118;BME280;59992;47.490;8.736;2022-11-15T09:29:22;96236.98;;;9.62;84.22
72118;BME280;59992;47.490;8.736;2022-11-15T09:32:10;96235.09;;;9.69;84.53
72118;BME280;59992;47.490;8.736;2022-11-15T09:34:59;96236.94;;;9.80;83.78
72118;BME280;59992;47.490;8.736;2022-11-15T09:37:46;96240.67;;;9.89;84.13
72118;BME280;59992;47.490;8.736;2022-11-15T09:40:37;96244.78;;;9.98;83.02
72118;BME280;59992;47.490;8.736;2022-11-15T09:43:31;96246.85;;;10.09;83.23
72118;BME280;59992;47.490;8.736;2022-11-15T09:46:27;96251.44;;;10.20;83.14
72118;BME280;59992;47.490;8.736;2022-11-15T09:49:21;96247.13;;;10.28;82.26
72118;BME280;59992;47.490;8.736;2022-11-15T09:52:10;96238.70;;;10.44;84.84
72118;BME280;59992;47.490;8.736;2022-11-15T09:54:59;96234.63;;;10.54;82.78
72118;BME280;59992;47.490;8.736;2022-11-15T09:57:52;96230.20;;;10.60;81.15
72118;BME280;59992;47.490;8.736;2022-11-15T10:00:46;96226.89;;;10.73;83.01
72118;BME280;59992;47.490;8.736;2022-11-15T10:03:38;96229.97;;;10.81;80.52
72118;BME280;59992;47.490;8.736;2022-11-15T10:06:30;96229.64;;;10.87;79.23
72118;BME280;59992;47.490;8.736;2022-11-15T10:09:26;96230.35;;;10.91;78.10
72118;BME280;59992;47.490;8.736;2022-11-15T10:12:18;96228.81;;;11.01;81.34
72118;BME280;59992;47.490;8.736;2022-11-15T10:15:11;96222.23;;;11.06;79.42
72118;BME280;59992;47.490;8.736;2022-11-15T10:18:13;96224.14;;;11.09;79.19
72118;BME280;59992;47.490;8.736;2022-11-15T10:21:15;96212.98;;;11.04;79.05
72118;BME280;59992;47.490;8.736;2022-11-15T10:24:11;96211.68;;;11.16;81.78
72118;BME280;59992;47.490;8.736;2022-11-15T10:27:00;96208.88;;;11.17;79.37
72118;BME280;59992;47.490;8.736;2022-11-15T10:29:50;96202.89;;;11.15;77.16
72118;BME280;59992;47.490;8.736;2022-11-15T10:32:39;96194.86;;;11.17;78.31
72118;BME280;59992;47.490;8.736;2022-11-15T10:35:29;96188.94;;;11.16;75.82
72118;BME280;59992;47.490;8.736;2022-11-15T10:38:18;96194.04;;;11.19;76.55
72118;BME280;59992;47.490;8.736;2022-11-15T10:41:08;96184.97;;;11.25;78.43
72118;BME280;59992;47.490;8.736;2022-11-15T10:44:09;96180.61;;;11.37;79.18
72118;BME280;59992;47.490;8.736;2022-11-15T10:50:28;96167.56;;;11.56;77.85
72118;BME280;59992;47.490;8.736;2022-11-15T10:53:21;96173.41;;;11.58;76.46
72118;BME280;59992;47.490;8.736;2022-11-15T10:56:12;96177.66;;;11.62;76.70
72118;BME280;59992;47.490;8.736;2022-11-15T10:59:03;96182.29;;;11.62;76.50
72118;BME280;59992;47.490;8.736;2022-11-15T11:01:51;96178.52;;;11.65;75.61
72118;BME280;59992;47.490;8.736;2022-11-15T11:04:51;96180.36;;;11.67;75.12
72118;BME280;59992;47.490;8.736;2022-11-15T11:07:39;96175.36;;;11.72;76.61
72118;BME280;59992;47.490;8.736;2022-11-15T11:10:28;96173.54;;;11.69;76.09
72118;BME280;59992;47.490;8.736;2022-11-15T11:13:23;96169.08;;;11.77;77.67
72118;BME280;59992;47.490;8.736;2022-11-15T11:16:30;96162.18;;;11.80;78.44
72118;BME280;59992;47.490;8.736;2022-11-15T11:19:38;96154.52;;;11.88;75.71
72118;BME280;59992;47.490;8.736;2022-11-15T11:22:37;96149.76;;;11.97;77.70
72118;BME280;59992;47.490;8.736;2022-11-15T11:25:34;96143.15;;;12.02;75.90
72118;BME280;59992;47.490;8.736;2022-11-15T11:28:33;96142.70;;;12.04;74.54
72118;BME280;59992;47.490;8.736;2022-11-15T11:31:32;96141.27;;;12.06;74.18
72118;BME280;59992;47.490;8.736;2022-11-15T11:34:33;96134.52;;;12.07;74.46
72118;BME280;59992;47.490;8.736;2022-11-15T11:37:30;96124.55;;;12.02;72.18
72118;BME280;59992;47.490;8.736;2022-11-15T11:40:30;96113.71;;;12.03;72.15
72118;BME280;59992;47.490;8.736;2022-11-15T11:43:24;96116.98;;;12.08;72.58
72118;BME280;59992;47.490;8.736;2022-11-15T11:46:47;96100.88;;;12.13;73.45
72118;BME280;59992;47.490;8.736;2022-11-15T11:49:42;96091.46;;;12.17;72.52
72118;BME280;59992;47.490;8.736;2022-11-15T11:55:41;96090.16;;;12.26;69.77
72118;BME280;59992;47.490;8.736;2022-11-15T11:58:35;96087.95;;;12.30;73.19
72118;BME280;59992;47.490;8.736;2022-11-15T12:01:26;96077.77;;;12.37;73.52
72118;BME280;59992;47.490;8.736;2022-11-15T12:04:20;96075.16;;;12.46;73.48
72118;BME280;59992;47.490;8.736;2022-11-15T12:07:13;96070.57;;;12.55;74.15
72118;BME280;59992;47.490;8.736;2022-11-15T12:10:05;96063.35;;;12.61;72.44
72118;BME280;59992;47.490;8.736;2022-11-15T12:13:06;96060.59;;;12.67;73.18
72118;BME280;59992;47.490;8.736;2022-11-15T12:15:59;96044.55;;;12.70;72.50
72118;BME280;59992;47.490;8.736;2022-11-15T12:18:53;96033.24;;;12.65;70.02
72118;BME280;59992;47.490;8.736;2022-11-15T12:21:45;96023.23;;;12.60;69.51
72118;BME280;59992;47.490;8.736;2022-11-15T12:24:38;96021.49;;;12.58;70.27
72118;BME280;59992;47.490;8.736;2022-11-15T12:27:35;96020.60;;;12.57;70.27
72118;BME280;59992;47.490;8.736;2022-11-15T12:30:27;96021.36;;;12.58;70.50
72118;BME280;59992;47.490;8.736;2022-11-15T12:33:36;96020.33;;;12.64;71.97
72118;BME280;59992;47.490;8.736;2022-11-15T12:36:35;96017.13;;;12.69;70.13
72118;BME280;59992;47.490;8.736;2022-11-15T12:42:59;96011.70;;;12.76;68.90
72118;BME280;59992;47.490;8.736;2022-11-15T12:45:48;96005.15;;;12.78;68.53
72118;BME280;59992;47.490;8.736;2022-11-15T12:48:57;96004.61;;;12.81;69.44
72118;BME280;59992;47.490;8.736;2022-11-15T12:52:06;95997.46;;;12.83;69.73
72118;BME280;59992;47.490;8.736;2022-11-15T12:55:00;95994.46;;;12.90;69.53
72118;BME280;59992;47.490;8.736;2022-11-15T12:57:49;95999.00;;;12.93;68.50
72118;BME280;59992;47.490;8.736;2022-11-15T13:00:39;95993.83;;;12.93;68.98
72118;BME280;59992;47.490;8.736;2022-11-15T13:03:29;95991.48;;;12.94;68.69
72118;BME280;59992;47.490;8.736;2022-11-15T13:06:39;95992.30;;;12.95;69.65
72118;BME280;59992;47.490;8.736;2022-11-15T13:09:55;95988.73;;;12.96;69.50
72118;BME280;59992;47.490;8.736;2022-11-15T13:12:55;95983.73;;;12.91;70.77
72118;BME280;59992;47.490;8.736;2022-11-15T13:15:55;95981.92;;;12.91;72.14
72118;BME280;59992;47.490;8.736;2022-11-15T13:18:48;95979.61;;;12.96;73.14
72118;BME280;59992;47.490;8.736;2022-11-15T13:21:49;95969.70;;;12.98;71.77
72118;BME280;59992;47.490;8.736;2022-11-15T13:24:56;95966.96;;;13.04;73.01
72118;BME280;59992;47.490;8.736;2022-11-15T13:27:44;95964.50;;;13.09;73.08
72118;BME280;59992;47.490;8.736;2022-11-15T13:30:32;95959.63;;;13.10;72.47
72118;BME280;59992;47.490;8.736;2022-11-15T13:33:23;95951.66;;;13.08;72.68
72118;BME280;59992;47.490;8.736;2022-11-15T13:36:17;95945.36;;;13.05;73.04
72118;BME280;59992;47.490;8.736;2022-11-15T13:39:14;95944.47;;;12.98;72.32
72118;BME280;59992;47.490;8.736;2022-11-15T13:42:15;95933.73;;;12.79;72.35
72118;BME280;59992;47.490;8.736;2022-11-15T13:45:11;95937.12;;;12.68;72.62
72118;BME280;59992;47.490;8.736;2022-11-15T13:48:03;95930.77;;;12.50;72.72
72118;BME280;59992;47.490;8.736;2022-11-15T13:50:53;95929.02;;;12.32;73.15
72118;BME280;59992;47.490;8.736;2022-11-15T13:54:17;95926.48;;;12.16;73.51
72118;BME280;59992;47.490;8.736;2022-11-15T13:57:14;95925.88;;;11.98;74.16
72118;BME280;59992;47.490;8.736;2022-11-15T14:00:24;95920.97;;;11.88;74.82
72118;BME280;59992;47.490;8.736;2022-11-15T14:03:17;95920.09;;;11.77;75.08
72118;BME280;59992;47.490;8.736;2022-11-15T14:06:08;95913.63;;;11.62;75.39
72118;BME280;59992;47.490;8.736;2022-11-15T14:09:03;95914.09;;;11.54;75.49
72118;BME280;59992;47.490;8.736;2022-11-15T14:11:53;95909.40;;;11.47;75.75
72118;BME280;59992;47.490;8.736;2022-11-15T14:14:46;95907.52;;;11.42;75.68
72118;BME280;59992;47.490;8.736;2022-11-15T14:17:37;95906.08;;;11.36;76.08
72118;BME280;59992;47.490;8.736;2022-11-15T14:20:30;95899.27;;;11.31;76.17
72118;BME280;59992;47.490;8.736;2022-11-15T14:23:25;95891.69;;;11.28;76.33
72118;BME280;59992;47.490;8.736;2022-11-15T14:26:28;95888.73;;;11.27;76.54
72118;BME280;59992;47.490;8.736;2022-11-15T14:29:23;95888.95;;;11.28;76.46
72118;BME280;59992;47.490;8.736;2022-11-15T14:32:15;95885.92;;;11.27;76.42
72118;BME280;59992;47.490;8.736;2022-11-15T14:35:09;95883.81;;;11.26;76.79
72118;BME280;59992;47.490;8.736;2022-11-15T14:38:00;95883.96;;;11.26;76.67
72118;BME280;59992;47.490;8.736;2022-11-15T14:40:48;95882.20;;;11.22;76.46
72118;BME280;59992;47.490;8.736;2022-11-15T14:43:36;95882.06;;;11.19;77.15
72118;BME280;59992;47.490;8.736;2022-11-15T14:46:24;95880.40;;;11.16;77.92
72118;BME280;59992;47.490;8.736;2022-11-15T14:49:12;95883.58;;;11.15;77.54
72118;BME280;59992;47.490;8.736;2022-11-15T14:52:02;95881.07;;;11.17;77.74
72118;BME280;59992;47.490;8.736;2022-11-15T14:54:51;95876.30;;;11.18;78.26
72118;BME280;59992;47.490;8.736;2022-11-15T14:57:40;95871.00;;;11.16;78.46
72118;BME280;59992;47.490;8.736;2022-11-15T15:00:28;95863.27;;;11.17;78.40
72118;BME280;59992;47.490;8.736;2022-11-15T15:03:17;95860.40;;;11.19;78.05
72118;BME280;59992;47.490;8.736;2022-11-15T15:06:05;95857.82;;;11.18;78.16
72118;BME280;59992;47.490;8.736;2022-11-15T15:08:53;95850.70;;;11.14;78.27
72118;BME280;59992;47.490;8.736;2022-11-15T15:11:42;95839.63;;;11.05;78.70
72118;BME280;59992;47.490;8.736;2022-11-15T15:14:29;95835.93;;;10.98;78.73
72118;BME280;59992;47.490;8.736;2022-11-15T15:17:18;95823.50;;;10.91;78.55
72118;BME280;59992;47.490;8.736;2022-11-15T15:20:08;95816.61;;;10.83;78.42
72118;BME280;59992;47.490;8.736;2022-11-15T15:22:56;95803.88;;;10.70;78.64
72118;BME280;59992;47.490;8.736;2022-11-15T15:25:44;95802.75;;;10.68;78.72
72118;BME280;59992;47.490;8.736;2022-11-15T15:28:32;95793.97;;;10.65;79.08